Time;durP1;ratioP1;P1;durP2;ratioP2;P2;SDS_P1;SDS_P2;PMS_P1;PMS_P2;Temp;Humidity;BMP_temperature;BMP_pressure;BME280_temperature;BME280_humidity;BME280_pressure;Samples;Min_cycle;Max_cycle;Signal;HPM_P1;HPM_P2
2022/08/16 00:04:46;;;;;;;28.85;22.63;;;;;;;18.83;100.00;100445.50;10132814;29;20099;-86
2022/08/16 00:09:47;;;;;;;25.20;22.50;;;;;;;18.14;100.00;100371.44;10098905;29;20031;-85
2022/08/16 00:14:50;;;;;;;27.33;23.40;;;;;;;18.78;100.00;100442.81;10131359;29;20399;-85
2022/08/16 00:19:54;;;;;;;28.15;23.85;;;;;;;18.93;100.00;100473.09;10126349;29;20432;-86
2022/08/16 00:25:01;;;;;;;27.73;23.13;;;;;;;18.72;100.00;100417.84;10116341;29;20047;-86
2022/08/16 00:30:05;;;;;;;26.48;20.95;;;;;;;18.01;100.00;100338.94;10120830;29;20440;-86
2022/08/16 00:35:07;;;;;;;26.42;22.98;;;;;;;18.54;100.00;100425.31;10108771;29;20059;-86
2022/08/16 00:40:14;;;;;;;28.00;22.23;;;;;;;18.85;100.00;100473.88;10144869;29;20121;-86
2022/08/16 00:45:38;;;;;;;29.27;23.90;;;;;;;18.21;100.00;100391.34;10079907;29;20052;-86
2022/08/16 00:50:40;;;;;;;29.10;23.55;;;;;;;18.28;100.00;100369.41;10043045;29;20115;-86
2022/08/16 00:55:49;;;;;;;30.10;24.23;;;;;;;19.43;100.00;100555.75;10097893;29;20110;-86
2022/08/16 01:00:50;;;;;;;32.30;26.60;;;;;;;18.69;100.00;100440.81;10076304;29;20028;-86
2022/08/16 01:05:51;;;;;;;29.20;23.58;;;;;;;18.66;100.00;100433.06;10108808;29;20051;-85
2022/08/16 01:10:55;;;;;;;34.83;26.63;;;;;;;18.78;100.00;100448.41;10123658;29;20032;-86
2022/08/16 01:15:59;;;;;;;32.45;26.67;;;;;;;18.79;100.00;100445.34;10125151;29;20041;-85
2022/08/16 01:21:10;;;;;;;31.00;27.42;;;;;;;18.45;100.00;100410.50;10126293;29;20028;-85
2022/08/16 01:26:14;;;;;;;36.22;27.92;;;;;;;18.28;100.00;100424.31;10132877;29;20149;-86
2022/08/16 01:31:17;;;;;;;33.33;28.50;;;;;;;17.99;100.00;100366.28;10125515;29;20079;-86
2022/08/16 01:36:17;;;;;;;36.65;29.60;;;;;;;18.22;100.00;100425.59;10125840;29;20040;-85
2022/08/16 01:41:20;;;;;;;37.92;29.33;;;;;;;18.35;100.00;100436.69;10123764;29;20032;-86
2022/08/16 01:46:22;;;;;;;39.95;29.90;;;;;;;19.18;100.00;100546.91;10114076;29;20043;-85
2022/08/16 01:51:24;;;;;;;39.72;31.50;;;;;;;18.18;100.00;100389.19;10109920;29;20044;-86
2022/08/16 01:56:27;;;;;;;44.45;33.50;;;;;;;17.94;100.00;100365.25;10085502;29;20092;-86
2022/08/16 02:01:41;;;;;;;;;;;;;;;;;;;;;
2022/08/16 02:06:43;;;;;;;42.22;34.60;;;;;;;19.08;100.00;100564.78;10090372;29;20055;-86
2022/08/16 02:11:45;;;;;;;43.92;34.53;;;;;;;18.75;100.00;100531.56;10051808;29;20037;-86
2022/08/16 02:16:46;;;;;;;48.88;38.33;;;;;;;17.82;100.00;100351.06;10097186;29;20043;-85
2022/08/16 02:21:49;;;;;;;47.20;37.20;;;;;;;17.93;100.00;100385.88;10062743;29;20384;-86
2022/08/16 02:26:55;;;;;;;50.97;38.17;;;;;;;18.24;100.00;100435.28;10072442;29;20025;-86
2022/08/16 02:31:55;;;;;;;52.45;38.45;;;;;;;18.57;100.00;100527.00;10082740;29;20115;-86
2022/08/16 02:36:59;;;;;;;54.92;40.67;;;;;;;17.95;100.00;100444.06;10102358;29;20473;-86
2022/08/16 02:42:00;;;;;;;51.70;39.97;;;;;;;18.46;100.00;100511.66;10090176;29;20124;-86
2022/08/16 02:47:02;;;;;;;53.85;39.03;;;;;;;18.37;100.00;100497.66;10049128;29;20393;-85
2022/08/16 02:52:06;;;;;;;57.22;40.95;;;;;;;17.31;100.00;100341.94;10100913;29;20091;-85
2022/08/16 02:57:07;;;;;;;58.13;41.90;;;;;;;18.00;100.00;100479.31;10153488;29;20048;-85
2022/08/16 03:02:10;;;;;;;55.80;41.53;;;;;;;16.81;100.00;100305.75;10130563;29;20055;-85
2022/08/16 03:07:13;;;;;;;60.28;42.45;;;;;;;17.41;100.00;100404.06;10109649;29;20404;-85
2022/08/16 03:12:13;;;;;;;65.18;46.40;;;;;;;17.65;100.00;100443.59;10148594;29;20055;-86
2022/08/16 03:17:15;;;;;;;63.35;44.22;;;;;;;17.46;100.00;100399.19;10137136;29;20028;-85
2022/08/16 03:22:16;;;;;;;63.60;43.88;;;;;;;18.46;100.00;100598.06;10139833;29;20044;-85
2022/08/16 03:27:19;;;;;;;64.63;46.53;;;;;;;17.99;100.00;100516.69;10102078;29;20118;-84
2022/08/16 03:32:20;;;;;;;67.57;47.22;;;;;;;17.66;100.00;100455.56;10148143;29;20563;-84
2022/08/16 03:37:20;;;;;;;65.95;44.78;;;;;;;17.40;100.00;100400.44;10152542;29;20036;-85
2022/08/16 03:42:21;;;;;;;62.58;46.08;;;;;;;17.80;100.00;100498.13;10130358;29;20492;-85
2022/08/16 03:47:26;;;;;;;68.55;47.45;;;;;;;17.90;100.00;100517.41;10129386;29;20038;-85
2022/08/16 03:52:29;;;;;;;76.65;49.65;;;;;;;18.22;100.00;100568.50;10131168;29;20048;-85
2022/08/16 03:57:33;;;;;;;65.03;47.78;;;;;;;16.96;100.00;100389.97;10121874;29;20036;-85
2022/08/16 04:02:37;;;;;;;72.28;49.85;;;;;;;17.52;100.00;100470.31;10148588;29;20044;-85
2022/08/16 04:07:37;;;;;;;66.95;48.60;;;;;;;16.75;100.00;100365.34;10130563;29;20030;-85
2022/08/16 04:12:39;;;;;;;72.05;49.75;;;;;;;18.12;100.00;100555.63;10169204;29;20494;-84
2022/08/16 04:17:42;;;;;;;73.20;51.05;;;;;;;17.48;100.00;100480.41;10183367;29;20086;-85
2022/08/16 04:22:43;;;;;;;73.25;51.55;;;;;;;17.84;100.00;100534.53;10191933;29;20131;-85
2022/08/16 04:27:44;;;;;;;77.63;51.38;;;;;;;17.01;100.00;100420.44;10172708;29;20127;-85
2022/08/16 04:32:45;;;;;;;73.03;51.72;;;;;;;18.02;100.00;100571.75;10176478;29;20031;-85
2022/08/16 04:37:46;;;;;;;76.00;53.85;;;;;;;17.10;100.00;100407.50;10180227;28;20031;-85
2022/08/16 04:42:47;;;;;;;80.22;52.95;;;;;;;17.48;100.00;100502.66;10177013;29;20091;-85
2022/08/16 04:47:50;;;;;;;70.35;49.83;;;;;;;17.07;100.00;100433.94;10139958;29;20036;-85
2022/08/16 04:52:53;;;;;;;73.57;51.15;;;;;;;17.12;100.00;100427.47;10138593;29;20040;-87
2022/08/16 04:57:54;;;;;;;65.22;49.80;;;;;;;17.59;100.00;100516.38;10146501;29;20512;-87
2022/08/16 05:02:57;;;;;;;70.95;48.97;;;;;;;17.01;100.00;100421.31;10143197;29;20048;-86
2022/08/16 05:08:01;;;;;;;74.43;51.67;;;;;;;16.56;100.00;100334.88;10176688;29;20500;-87
2022/08/16 05:13:05;;;;;;;73.07;50.40;;;;;;;17.00;100.00;100427.97;10194442;29;20027;-87
2022/08/16 05:18:05;;;;;;;67.63;48.67;;;;;;;17.30;100.00;100484.97;10156860;29;20051;-87
2022/08/16 05:23:06;;;;;;;73.82;48.95;;;;;;;16.93;100.00;100430.38;10152868;29;20046;-87
2022/08/16 05:28:09;;;;;;;58.13;45.88;;;;;;;16.47;100.00;100312.50;10123459;29;20032;-87
2022/08/16 05:33:10;;;;;;;63.15;48.30;;;;;;;16.84;100.00;100399.66;10118522;29;20031;-87
2022/08/16 05:38:11;;;;;;;57.22;43.67;;;;;;;16.95;100.00;100439.22;10123276;29;20400;-86
2022/08/16 05:43:12;;;;;;;62.55;47.17;;;;;;;16.63;100.00;100376.13;10138250;29;20055;-87
2022/08/16 05:48:12;;;;;;;67.80;45.45;;;;;;;17.91;100.00;100555.25;10130702;29;20024;-87
2022/08/16 05:53:15;;;;;;;57.33;43.13;;;;;;;17.78;100.00;100514.31;10159264;29;20028;-88
2022/08/16 05:58:16;;;;;;;58.08;44.25;;;;;;;17.40;100.00;100461.66;10166891;29;20028;-88
2022/08/16 06:03:19;;;;;;;52.95;39.97;;;;;;;17.54;100.00;100484.72;10123786;29;20594;-88
2022/08/16 06:08:20;;;;;;;50.90;39.83;;;;;;;17.40;100.00;100422.69;10060571;29;20047;-88
2022/08/16 06:13:21;;;;;;;50.65;41.90;;;;;;;18.37;100.00;100514.38;10124204;29;20120;-87
2022/08/16 06:18:21;;;;;;;51.55;36.20;;;;;;;17.96;100.00;100409.47;10151102;29;20051;-86
2022/08/16 06:23:25;;;;;;;41.40;31.50;;;;;;;18.66;100.00;100488.03;10168069;29;20058;-87
2022/08/16 06:28:25;;;;;;;39.88;33.22;;;;;;;18.87;100.00;100536.59;10132950;29;20407;-86
2022/08/16 06:33:26;;;;;;;39.53;33.25;;;;;;;18.00;100.00;100379.06;10147074;29;20031;-86
2022/08/16 06:38:27;;;;;;;40.60;33.42;;;;;;;18.76;100.00;100530.41;10163859;29;20040;-87
2022/08/16 06:43:28;;;;;;;44.05;30.98;;;;;;;18.63;100.00;100474.72;10163591;28;20101;-85
2022/08/16 06:48:29;;;;;;;38.67;32.10;;;;;;;19.93;100.00;100600.16;10196532;29;20050;-87
2022/08/16 06:53:32;;;;;;;36.13;28.45;;;;;;;19.50;100.00;100459.22;10170431;29;20068;-87
2022/08/16 06:58:33;;;;;;;32.08;27.95;;;;;;;19.85;100.00;100424.97;10171979;29;20460;-86
2022/08/16 07:03:34;;;;;;;32.47;26.38;;;;;;;20.34;100.00;100481.53;10187511;29;20169;-86
2022/08/16 07:08:34;;;;;;;29.67;24.90;;;;;;;20.49;100.00;100477.38;10140097;29;20161;-86
2022/08/16 07:13:35;;;;;;;29.52;24.80;;;;;;;21.59;100.00;100645.78;10158412;29;20109;-87
2022/08/16 07:18:38;;;;;;;27.73;23.88;;;;;;;20.61;100.00;100427.22;10158270;29;20031;-87
2022/08/16 07:23:39;;;;;;;30.75;24.00;;;;;;;21.85;100.00;100549.56;10129292;29;20586;-87
2022/08/16 07:28:40;;;;;;;28.15;21.27;;;;;;;21.36;100.00;100465.94;10113034;29;20496;-87
2022/08/16 07:33:43;;;;;;;28.60;22.80;;;;;;;22.04;100.00;100516.31;10098397;29;20027;-88
2022/08/16 07:38:47;;;;;;;24.45;20.05;;;;;;;22.21;100.00;100554.59;10072841;29;20027;-88
2022/08/16 07:44:01;;;;;;;24.42;20.45;;;;;;;21.70;100.00;100419.28;10058579;29;20044;-87
2022/08/16 07:49:19;;;;;;;21.88;19.58;;;;;;;22.04;100.00;100467.84;10100046;28;20456;-88
2022/08/16 07:54:33;;;;;;;29.83;19.60;;;;;;;22.55;100.00;100533.91;10068411;29;20643;-88
2022/08/16 08:00:05;;;;;;;;;;;;;;;;;;;;;
2022/08/16 08:05:16;;;;;;;;;;;;;;;;;;;;;
2022/08/16 08:17:42;;;;;;;;;;;;;;;;;;;;;
2022/08/16 08:23:37;;;;;;;;;;;;;;;;;;;;;
2022/08/16 08:29:06;;;;;;;13.70;12.18;;;;;;;24.73;100.00;100609.88;10082773;29;20540;-90
2022/08/16 08:34:32;;;;;;;19.33;13.52;;;;;;;23.53;100.00;100426.59;9951520;29;20117;-88
2022/08/16 08:50:54;;;;;;;16.67;11.93;;;;;;;24.76;100.00;100471.22;9837057;29;20048;-90
2022/08/16 08:56:15;;;;;;;15.15;12.85;;;;;;;25.00;100.00;100502.41;9871674;29;20040;-89
2022/08/16 09:01:38;;;;;;;;;;;;;;;;;;;;;
2022/08/16 09:07:22;;;;;;;;;;;;;;;;;;;;;
2022/08/16 09:12:38;;;;;;;15.93;11.07;;;;;;;26.12;100.00;100568.84;9874252;29;20046;-88
2022/08/16 09:18:11;;;;;;;12.45;10.32;;;;;;;26.35;98.21;100538.72;9866393;29;20287;-88
2022/08/16 09:23:53;;;;;;;12.15;8.02;;;;;;;26.23;95.35;100502.22;9947793;29;20193;-86
2022/08/16 09:28:56;;;;;;;13.93;8.05;;;;;;;26.61;90.72;100585.31;10121129;29;20032;-87
2022/08/16 09:33:57;;;;;;;9.30;6.95;;;;;;;26.18;88.41;100482.75;10099617;29;20051;-88
2022/08/16 09:39:29;;;;;;;13.05;7.28;;;;;;;26.57;85.11;100516.66;10044724;29;20421;-89
2022/08/16 09:44:44;;;;;;;11.73;6.28;;;;;;;27.20;84.18;100566.28;10068310;29;20040;-88
2022/08/16 09:49:48;;;;;;;8.60;7.70;;;;;;;26.74;83.67;100473.81;10053843;28;20052;-84
2022/08/16 09:55:32;;;;;;;8.52;7.50;;;;;;;27.64;81.58;100630.94;10076715;29;20044;-89
2022/08/16 10:00:53;;;;;;;9.80;5.97;;;;;;;27.90;79.73;100593.41;10069218;29;20137;-88
2022/08/16 10:06:03;;;;;;;10.40;6.30;;;;;;;27.62;81.01;100570.25;10084667;29;20067;-89
2022/08/16 10:17:51;;;;;;;7.13;6.03;;;;;;;28.64;74.87;100597.72;10033158;29;20051;-87
2022/08/16 10:29:44;;;;;;;8.85;5.53;;;;;;;28.71;72.53;100600.69;9987937;29;20157;-90
2022/08/16 10:41:51;;;;;;;6.13;4.72;;;;;;;29.02;65.50;100590.09;10501393;27;20448;-75
2022/08/16 10:46:52;;;;;;;7.25;5.38;;;;;;;29.17;68.72;100608.94;10498299;28;20079;-76
2022/08/16 10:51:54;;;;;;;11.25;6.68;;;;;;;29.16;68.16;100610.13;10480974;28;20222;-79
2022/08/16 10:56:55;;;;;;;8.07;5.55;;;;;;;29.07;67.65;100552.09;10499686;28;20363;-77
2022/08/16 11:01:56;;;;;;;6.97;5.63;;;;;;;29.79;67.64;100607.53;10499468;28;20204;-75
2022/08/16 11:06:56;;;;;;;8.25;4.32;;;;;;;30.17;64.63;100585.50;10497226;28;20033;-76
2022/08/16 11:11:57;;;;;;;3.40;3.10;;;;;;;30.25;59.40;100572.16;10497535;28;20044;-75
2022/08/16 11:16:58;;;;;;;6.53;3.75;;;;;;;30.14;58.58;100580.63;10498679;28;20029;-75
2022/08/16 11:21:59;;;;;;;5.90;3.92;;;;;;;30.20;56.12;100578.22;10498248;28;20055;-74
2022/08/16 11:27:00;;;;;;;5.18;4.43;;;;;;;30.65;56.70;100581.72;10479949;28;20052;-76
2022/08/16 11:32:03;;;;;;;6.65;4.15;;;;;;;30.80;57.18;100588.28;10496418;28;20039;-76
2022/08/16 11:37:04;;;;;;;5.47;3.67;;;;;;;30.95;58.13;100604.22;10461583;28;20041;-76
2022/08/16 11:42:04;;;;;;;7.13;3.03;;;;;;;31.11;55.23;100606.69;10479634;28;20044;-76
2022/08/16 11:47:05;;;;;;;7.22;2.97;;;;;;;31.22;52.21;100592.50;10493815;28;20041;-76
2022/08/16 11:52:06;;;;;;;9.15;4.32;;;;;;;31.53;53.80;100608.84;10457219;28;20052;-77
2022/08/16 11:57:06;;;;;;;6.50;3.65;;;;;;;31.86;51.20;100598.28;10468025;28;20120;-75
2022/08/16 12:02:07;;;;;;;5.13;3.75;;;;;;;31.78;53.18;100633.66;10469939;28;20037;-77
2022/08/16 12:07:09;;;;;;;9.52;5.05;;;;;;;32.55;50.38;100610.41;10466390;28;20037;-78
2022/08/16 12:12:10;;;;;;;7.05;3.55;;;;;;;32.89;49.39;100619.25;10468395;28;20045;-78
2022/08/16 12:17:10;;;;;;;6.80;3.40;;;;;;;33.79;48.07;100613.00;10468605;28;20067;-78
2022/08/16 12:22:11;;;;;;;9.38;3.78;;;;;;;34.11;47.09;100611.91;10466773;28;20037;-78
2022/08/16 12:27:11;;;;;;;4.93;3.90;;;;;;;34.47;47.35;100623.00;10466522;28;20040;-76
2022/08/16 12:32:12;;;;;;;10.85;4.97;;;;;;;34.68;44.24;100585.59;10466579;28;20067;-75
2022/08/16 12:37:14;;;;;;;5.90;3.22;;;;;;;35.35;43.49;100608.03;10465613;28;20052;-73
2022/08/16 12:42:18;;;;;;;8.85;3.85;;;;;;;35.47;42.93;100587.34;10444370;28;20041;-74
2022/08/16 12:52:37;;;;;;;6.43;4.10;;;;;;;35.88;40.50;100583.44;10439420;28;20037;-75
2022/08/16 12:57:38;;;;;;;4.68;3.47;;;;;;;36.19;41.87;100611.97;10464941;28;20037;-75
2022/08/16 13:02:45;;;;;;;8.60;3.70;;;;;;;36.05;39.81;100589.28;10445350;28;20033;-73
2022/08/16 13:07:45;;;;;;;7.55;3.90;;;;;;;35.12;40.49;100603.00;10421423;28;20063;-76
2022/08/16 13:12:49;;;;;;;10.27;4.18;;;;;;;34.44;41.27;100600.97;10404738;28;20041;-75
2022/08/16 13:17:50;;;;;;;8.43;3.57;;;;;;;34.85;40.49;100602.97;10459809;28;20048;-75
2022/08/16 13:23:00;;;;;;;5.22;3.80;;;;;;;35.00;41.43;100603.56;10462211;28;20034;-76
2022/08/16 13:28:01;;;;;;;7.85;4.00;;;;;;;34.63;41.96;100617.50;10445858;28;20097;-74
2022/08/16 13:33:02;;;;;;;6.00;4.82;;;;;;;33.55;43.08;100621.34;10462944;28;20033;-74
2022/08/16 13:38:03;;;;;;;6.38;4.07;;;;;;;33.08;44.88;100643.63;10461322;28;20079;-73
2022/08/16 13:43:03;;;;;;;6.82;3.83;;;;;;;32.97;43.83;100632.25;10442500;28;20485;-75
2022/08/16 13:48:04;;;;;;;6.25;4.35;;;;;;;33.46;44.77;100629.53;10460761;28;20029;-73
2022/08/16 13:53:04;;;;;;;6.45;4.28;;;;;;;35.09;41.82;100613.25;10436063;28;20071;-74
2022/08/16 13:58:05;;;;;;;8.90;4.32;;;;;;;36.01;39.93;100614.31;10418348;28;20504;-74
2022/08/16 14:03:07;;;;;;;5.03;4.47;;;;;;;35.57;40.43;100617.88;10421350;28;20060;-75
2022/08/16 14:08:07;;;;;;;6.07;4.80;;;;;;;35.91;40.84;100616.16;10415541;28;20420;-75
2022/08/16 14:13:08;;;;;;;11.00;5.57;;;;;;;34.98;41.51;100626.91;10417619;28;20037;-74
2022/08/16 14:18:08;;;;;;;5.35;4.82;;;;;;;34.91;41.68;100624.13;10417584;28;20029;-75
2022/08/16 14:23:08;;;;;;;5.93;4.75;;;;;;;35.09;42.20;100618.97;10420050;28;20050;-70
2022/08/16 14:28:09;;;;;;;7.30;4.88;;;;;;;34.93;42.03;100627.38;10420128;28;20037;-73
2022/08/16 14:33:10;;;;;;;5.18;4.68;;;;;;;34.28;44.16;100639.53;10399908;28;20060;-74
2022/08/16 14:38:10;;;;;;;6.28;4.30;;;;;;;34.20;44.38;100642.88;10417811;28;20038;-75
2022/08/16 14:43:11;;;;;;;9.30;4.90;;;;;;;34.53;42.39;100633.53;10417334;28;20041;-76
2022/08/16 14:48:11;;;;;;;7.40;4.20;;;;;;;33.20;44.04;100633.78;10420074;28;20030;-74
2022/08/16 14:53:12;;;;;;;7.03;4.35;;;;;;;33.06;44.96;100663.16;10417681;28;20040;-77
2022/08/16 14:58:12;;;;;;;5.47;4.28;;;;;;;32.06;47.90;100674.75;10385024;28;20079;-77
2022/08/16 15:03:13;;;;;;;7.70;5.03;;;;;;;31.84;47.85;100674.72;10402302;28;20041;-79
2022/08/16 15:08:15;;;;;;;4.63;4.00;;;;;;;32.57;46.02;100677.16;10417009;28;20037;-77
2022/08/16 15:13:17;;;;;;;7.28;3.88;;;;;;;31.93;46.33;100663.75;10401278;28;20040;-77
2022/08/16 15:18:17;;;;;;;5.95;3.95;;;;;;;32.09;46.04;100683.31;10399137;28;20067;-80
2022/08/16 15:23:18;;;;;;;7.55;3.55;;;;;;;32.41;44.88;100667.41;10384225;28;20093;-80
2022/08/16 15:28:19;;;;;;;6.70;3.67;;;;;;;32.57;44.76;100667.81;10408648;28;20037;-78
2022/08/16 15:33:20;;;;;;;6.55;3.80;;;;;;;31.64;44.36;100659.25;10419608;28;20037;-79
2022/08/16 15:38:21;;;;;;;6.97;4.28;;;;;;;31.35;46.31;100682.72;10382795;28;20068;-79
2022/08/16 15:43:22;;;;;;;8.38;4.38;;;;;;;31.46;47.97;100682.81;10380831;28;20125;-79
2022/08/16 15:48:22;;;;;;;6.35;4.03;;;;;;;31.43;48.03;100683.56;10380886;28;20438;-78
2022/08/16 15:53:23;;;;;;;9.85;5.47;;;;;;;31.50;48.45;100683.63;10364011;28;20025;-77
2022/08/16 15:58:23;;;;;;;6.68;5.35;;;;;;;31.16;52.00;100709.47;10362947;28;20038;-78
2022/08/16 16:03:24;;;;;;;12.73;7.47;;;;;;;30.26;55.00;100713.72;10365035;28;20438;-80
2022/08/16 16:08:25;;;;;;;13.98;6.70;;;;;;;29.73;56.35;100708.41;10347053;28;20117;-78
2022/08/16 16:13:26;;;;;;;9.48;6.18;;;;;;;29.49;58.01;100733.22;10406772;28;20056;-79
2022/08/16 16:18:28;;;;;;;8.85;6.28;;;;;;;29.17;59.97;100733.66;10460832;28;20423;-81
2022/08/16 16:23:32;;;;;;;16.77;6.88;;;;;;;28.86;60.92;100734.03;10445031;28;20033;-80
2022/08/16 16:28:33;;;;;;;10.20;6.25;;;;;;;28.77;62.55;100740.78;10445317;28;20151;-78
2022/08/16 16:33:37;;;;;;;15.02;7.18;;;;;;;28.59;63.28;100742.53;10462546;28;20048;-78
2022/08/16 16:38:37;;;;;;;10.93;5.88;;;;;;;28.32;64.73;100758.63;10415853;28;20060;-78
2022/08/16 16:43:41;;;;;;;8.15;6.13;;;;;;;28.01;66.14;100754.88;10385935;28;20040;-79
2022/08/16 16:48:41;;;;;;;7.50;6.32;;;;;;;27.74;68.19;100768.06;10403175;28;20109;-79
2022/08/16 16:53:45;;;;;;;14.57;6.43;;;;;;;27.66;69.48;100780.41;10386009;28;20041;-75
2022/08/16 16:59:03;;;;;;;9.02;6.28;;;;;;;27.55;69.04;100764.09;10404517;28;20068;-76
2022/08/16 17:04:05;;;;;;;8.43;6.05;;;;;;;27.43;67.73;100764.22;10382511;28;20560;-75
2022/08/16 17:09:07;;;;;;;9.90;5.50;;;;;;;27.39;67.58;100771.81;10425682;28;20589;-76
2022/08/16 17:14:08;;;;;;;8.60;5.75;;;;;;;27.41;65.93;100786.41;10393789;28;20049;-76
2022/08/16 17:19:08;;;;;;;6.05;4.28;;;;;;;27.34;65.30;100786.22;10445662;28;20572;-76
2022/08/16 17:24:09;;;;;;;6.03;3.83;;;;;;;27.17;62.71;100796.75;10409038;28;20049;-76
2022/08/16 17:29:10;;;;;;;5.07;3.08;;;;;;;26.94;59.01;100778.88;10414940;28;20056;-76
2022/08/16 17:34:11;;;;;;;3.40;2.80;;;;;;;26.66;58.04;100770.53;10412966;28;20034;-76
2022/08/16 17:39:11;;;;;;;6.28;2.63;;;;;;;26.53;58.59;100786.75;10415249;28;20083;-76
2022/08/16 17:44:12;;;;;;;7.80;4.22;;;;;;;26.58;64.26;100823.19;10407147;28;20053;-76
2022/08/16 17:49:12;;;;;;;10.98;7.07;;;;;;;26.57;74.31;100861.91;10401040;28;20041;-76
2022/08/16 17:54:13;;;;;;;11.05;8.70;;;;;;;26.40;86.42;100856.59;10432914;28;20040;-75
2022/08/16 17:59:14;;;;;;;17.35;11.82;;;;;;;26.27;95.08;100863.47;10385113;28;20068;-74
2022/08/16 18:04:15;;;;;;;21.83;12.57;;;;;;;26.04;100.00;100875.34;10400427;28;20072;-75
2022/08/16 18:09:16;;;;;;;18.45;12.02;;;;;;;25.81;100.00;100883.53;10425181;28;20353;-76
2022/08/16 18:14:17;;;;;;;18.20;11.88;;;;;;;25.54;100.00;100896.41;10416260;28;20117;-74
2022/08/16 18:19:18;;;;;;;16.10;11.13;;;;;;;25.24;100.00;100890.22;10388887;28;20061;-75
2022/08/16 18:24:18;;;;;;;16.52;12.25;;;;;;;25.00;100.00;100903.13;10375041;28;20490;-76
2022/08/16 18:29:20;;;;;;;19.17;13.13;;;;;;;24.71;100.00;100902.19;10359339;28;20041;-78
2022/08/16 18:34:20;;;;;;;21.02;12.70;;;;;;;24.66;100.00;100921.28;10375751;28;20057;-76
2022/08/16 18:39:21;;;;;;;14.65;11.27;;;;;;;24.51;100.00;100919.97;10390885;28;20046;-75
2022/08/16 18:44:21;;;;;;;13.73;11.27;;;;;;;24.35;100.00;100923.41;10368023;28;20033;-76
2022/08/16 18:49:21;;;;;;;17.73;11.60;;;;;;;24.10;100.00;100910.41;10349629;28;20033;-76
2022/08/16 18:54:23;;;;;;;17.25;11.60;;;;;;;23.94;100.00;100908.25;10389712;28;20041;-76
2022/08/16 18:59:25;;;;;;;16.95;11.35;;;;;;;23.73;100.00;100913.03;10360026;28;20128;-76
2022/08/16 19:04:26;;;;;;;18.20;13.20;;;;;;;23.69;100.00;100928.94;10381150;28;20038;-76
2022/08/16 19:09:27;;;;;;;17.65;11.38;;;;;;;23.52;100.00;100930.72;10381685;28;20117;-75
2022/08/16 19:14:28;;;;;;;16.45;12.63;;;;;;;23.34;100.00;100934.81;10381461;28;20376;-75
2022/08/16 19:19:29;;;;;;;20.80;12.88;;;;;;;23.20;100.00;100953.88;10435056;28;20479;-76
2022/08/16 19:24:29;;;;;;;20.00;12.10;;;;;;;23.04;100.00;100956.44;10403901;28;20029;-76
2022/08/16 19:29:30;;;;;;;20.42;12.48;;;;;;;22.90;100.00;100965.88;10432857;28;20036;-76
2022/08/16 19:34:30;;;;;;;18.90;13.63;;;;;;;22.79;100.00;100975.00;10412241;28;20056;-76
2022/08/16 19:39:31;;;;;;;16.08;13.30;;;;;;;22.62;100.00;100976.69;10434721;28;20305;-75
2022/08/16 19:44:31;;;;;;;22.52;13.45;;;;;;;22.48;100.00;100981.66;10404305;28;20037;-76
2022/08/16 19:49:32;;;;;;;20.80;14.43;;;;;;;22.27;100.00;100987.94;10387474;28;20045;-76
2022/08/16 19:54:32;;;;;;;19.00;14.00;;;;;;;22.15;100.00;100999.78;10417812;28;20064;-72
2022/08/16 19:59:34;;;;;;;20.73;15.00;;;;;;;22.00;100.00;100989.09;10432110;28;20053;-76
2022/08/16 20:04:35;;;;;;;22.20;16.80;;;;;;;21.95;100.00;101020.91;10402653;28;20034;-75
2022/08/16 20:09:36;;;;;;;25.10;15.93;;;;;;;21.75;100.00;100999.94;10392181;28;20040;-74
2022/08/16 20:14:37;;;;;;;22.90;15.48;;;;;;;21.76;100.00;101021.19;10376241;28;20041;-74
2022/08/16 20:19:38;;;;;;;21.73;15.63;;;;;;;21.62;100.00;101016.88;10408737;28;20038;-74
2022/08/16 20:24:38;;;;;;;22.20;16.67;;;;;;;21.50;100.00;101021.13;10377837;28;20038;-75
2022/08/16 20:29:40;;;;;;;20.13;15.15;;;;;;;21.38;100.00;101026.50;10374062;28;20386;-76
2022/08/16 20:34:40;;;;;;;22.20;16.55;;;;;;;21.33;100.00;101037.84;10412765;28;20061;-75
2022/08/16 20:39:42;;;;;;;22.58;18.10;;;;;;;21.22;100.00;101044.88;10401314;28;20029;-76
2022/08/16 20:44:43;;;;;;;21.02;17.13;;;;;;;21.15;100.00;101037.78;10409476;28;20045;-75
2022/08/16 20:49:44;;;;;;;24.88;21.65;;;;;;;21.07;100.00;101024.56;10383725;28;20048;-75
2022/08/16 20:54:44;;;;;;;31.55;22.90;;;;;;;21.24;100.00;101051.81;10402934;28;20044;-75
2022/08/16 20:59:45;;;;;;;32.88;27.33;;;;;;;21.15;100.00;101028.56;10416763;28;20248;-73
2022/08/16 21:04:45;;;;;;;35.85;25.80;;;;;;;21.30;100.00;101060.91;10400991;28;20552;-74
2022/08/16 21:09:46;;;;;;;33.67;23.58;;;;;;;21.28;100.00;101052.81;10383135;28;20045;-74
2022/08/16 21:14:46;;;;;;;34.50;27.38;;;;;;;21.17;100.00;101051.44;10398429;28;20040;-75
2022/08/16 21:19:47;;;;;;;33.08;26.42;;;;;;;21.13;100.00;101061.66;10398955;28;20038;-75
2022/08/16 21:24:48;;;;;;;35.88;27.85;;;;;;;20.95;100.00;101050.34;10416962;28;20029;-75
2022/08/16 21:29:50;;;;;;;38.90;27.60;;;;;;;20.93;100.00;101069.41;10396491;28;20045;-74
2022/08/16 21:34:51;;;;;;;39.55;29.27;;;;;;;20.91;100.00;101080.09;10399830;28;20043;-75
2022/08/16 21:39:52;;;;;;;41.13;30.70;;;;;;;20.87;100.00;101070.69;10376926;28;20052;-74
2022/08/16 21:44:52;;;;;;;38.05;30.92;;;;;;;20.82;100.00;101067.22;10416519;28;20033;-74
2022/08/16 21:49:53;;;;;;;39.28;30.45;;;;;;;20.85;100.00;101084.19;10406998;28;20032;-74
2022/08/16 21:54:54;;;;;;;39.03;29.58;;;;;;;20.90;100.00;101086.03;10427987;28;20049;-71
2022/08/16 21:59:55;;;;;;;36.28;30.25;;;;;;;20.91;100.00;101102.50;10403010;28;20405;-74
2022/08/16 22:04:55;;;;;;;39.38;29.65;;;;;;;20.91;100.00;101102.50;10415033;28;20037;-74
2022/08/16 22:09:56;;;;;;;40.33;28.75;;;;;;;20.92;100.00;101106.97;10391082;28;20072;-74
2022/08/16 22:14:57;;;;;;;37.53;27.70;;;;;;;20.87;100.00;101100.66;10396532;28;20029;-74
2022/08/16 22:19:57;;;;;;;32.25;26.10;;;;;;;20.87;100.00;101109.06;10399305;28;20049;-74
2022/08/16 22:24:59;;;;;;;38.17;28.30;;;;;;;20.89;100.00;101106.75;10415576;28;20033;-74
2022/08/16 22:30:00;;;;;;;31.95;27.42;;;;;;;20.89;100.00;101115.16;10413960;28;20106;-75
2022/08/16 22:35:00;;;;;;;42.50;27.73;;;;;;;20.80;100.00;101101.13;10413100;28;20120;-75
2022/08/16 22:40:01;;;;;;;35.33;26.80;;;;;;;20.79;100.00;101098.63;10416233;28;20040;-74
2022/08/16 22:45:05;;;;;;;39.83;30.77;;;;;;;20.71;100.00;101089.88;10436164;28;20033;-73
2022/08/16 22:50:06;;;;;;;42.47;31.02;;;;;;;20.60;100.00;101096.00;10436146;28;20041;-74
2022/08/16 22:55:07;;;;;;;43.63;32.78;;;;;;;20.42;100.00;101089.41;10425413;28;20097;-75
2022/08/16 23:00:09;;;;;;;43.05;32.72;;;;;;;20.26;100.00;101084.19;10372907;28;20030;-75
2022/08/16 23:05:10;;;;;;;43.92;33.83;;;;;;;20.21;100.00;101103.03;10374125;28;20058;-75
2022/08/16 23:10:10;;;;;;;46.10;32.40;;;;;;;20.09;100.00;101111.94;10357337;28;20033;-74
2022/08/16 23:15:11;;;;;;;45.70;35.53;;;;;;;19.86;100.00;101100.69;10341054;28;20076;-75
2022/08/16 23:20:11;;;;;;;55.38;37.80;;;;;;;19.68;100.00;101085.69;10397102;28;20061;-73
2022/08/16 23:25:15;;;;;;;43.88;36.17;;;;;;;19.64;100.00;101103.38;10382789;28;20030;-74
2022/08/16 23:30:17;;;;;;;51.55;36.97;;;;;;;19.43;100.00;101078.66;10396950;28;20033;-75
2022/08/16 23:35:19;;;;;;;48.22;36.72;;;;;;;19.48;100.00;101089.72;10400681;28;20107;-74
2022/08/16 23:40:20;;;;;;;49.08;35.60;;;;;;;19.37;100.00;101082.69;10381494;28;20038;-74
2022/08/16 23:45:22;;;;;;;48.00;35.42;;;;;;;19.33;100.00;101073.28;10398334;28;20053;-75
2022/08/16 23:50:23;;;;;;;52.67;37.67;;;;;;;19.26;100.00;101078.41;10403563;28;20076;-74